createdAt,value
2022-11-05T00:02:31.209Z,100625.25
2022-11-05T00:05:16.661Z,100623.31
2022-11-05T00:08:06.300Z,100634.41
2022-11-05T00:10:36.989Z,100634.41
2022-11-05T00:13:25.635Z,100634.41
2022-11-05T00:16:10.828Z,100630.34
2022-11-05T00:18:38.750Z,100628.25
2022-11-05T00:21:27.040Z,100635.94
2022-11-05T00:24:12.209Z,100635.22
2022-11-05T00:26:39.915Z,100633.34
2022-11-05T00:29:09.022Z,100621.44
2022-11-05T00:31:36.735Z,100645.16
2022-11-05T00:34:04.474Z,100647.94
2022-11-05T00:36:32.184Z,100650.69
2022-11-05T00:38:59.938Z,100650.13
2022-11-05T00:41:27.650Z,100659.00
2022-11-05T00:44:12.673Z,100668.44
2022-11-05T00:46:41.705Z,100668.13
2022-11-05T00:49:26.924Z,100681.78
2022-11-05T00:52:16.961Z,100676.38
2022-11-05T00:54:44.716Z,100685.63
2022-11-05T00:57:12.475Z,100686.59
2022-11-05T00:59:40.151Z,100694.53
2022-11-05T01:02:09.207Z,100696.22
2022-11-05T01:04:37.058Z,100687.81
2022-11-05T01:07:04.786Z,100696.72
2022-11-05T01:09:32.553Z,100701.44
2022-11-05T01:12:00.377Z,100668.88
2022-11-05T01:14:28.179Z,100690.19
2022-11-05T01:16:55.906Z,100704.56
2022-11-05T01:19:25.011Z,100701.09
2022-11-05T01:21:52.708Z,100701.34
2022-11-05T01:24:20.406Z,100718.41
2022-11-05T01:26:48.102Z,100708.50
2022-11-05T01:29:16.690Z,100714.63
2022-11-05T01:31:44.411Z,100711.50
2022-11-05T01:34:12.150Z,100709.81
2022-11-05T01:36:41.189Z,100718.47
2022-11-05T01:39:08.953Z,100721.63
2022-11-05T01:41:36.710Z,100733.47
2022-11-05T01:44:04.405Z,100730.25
2022-11-05T01:46:37.669Z,100708.13
2022-11-05T01:49:11.567Z,100743.97
2022-11-05T01:51:42.050Z,100735.06
2022-11-05T01:54:14.360Z,100741.44
2022-11-05T01:56:47.300Z,100742.03
2022-11-05T01:59:19.604Z,100734.84
2022-11-05T02:01:47.730Z,100731.72
2022-11-05T02:04:22.043Z,100747.31
2022-11-05T02:06:51.513Z,100737.72
2022-11-05T02:09:24.193Z,100743.72
2022-11-05T02:11:52.505Z,100743.72
2022-11-05T02:14:20.372Z,100748.28
2022-11-05T02:16:53.828Z,100748.28
2022-11-05T02:19:48.577Z,100745.03
2022-11-05T02:23:00.853Z,100751.88
2022-11-05T02:25:57.197Z,100756.56
2022-11-05T02:28:45.356Z,100762.69
2022-11-05T02:31:22.771Z,100747.31
2022-11-05T02:33:58.303Z,100766.03
2022-11-05T02:36:36.296Z,100763.16
2022-11-05T02:39:18.673Z,100762.91
2022-11-05T02:42:00.647Z,100761.22
2022-11-05T02:44:40.546Z,100763.47
2022-11-05T02:47:21.179Z,100764.31
2022-11-05T02:49:56.151Z,100758.06
2022-11-05T02:52:29.843Z,100761.78
2022-11-05T02:55:04.197Z,100764.06
2022-11-05T02:57:36.346Z,100758.47
2022-11-05T03:00:27.335Z,100744.69
2022-11-05T03:02:56.578Z,100756.94
2022-11-05T03:05:31.494Z,100759.44
2022-11-05T03:08:07.116Z,100765.00
2022-11-05T03:10:44.122Z,100764.41
2022-11-05T03:13:18.317Z,100763.44
2022-11-05T03:15:55.443Z,100763.91
2022-11-05T03:18:34.340Z,100723.91
2022-11-05T03:21:07.721Z,100769.44
2022-11-05T03:23:45.196Z,100758.88
2022-11-05T03:26:20.681Z,100760.53
2022-11-05T03:28:53.905Z,100766.91
2022-11-05T03:31:23.973Z,100758.41
2022-11-05T03:33:54.946Z,100765.13
2022-11-05T03:36:26.742Z,100756.00
2022-11-05T03:38:57.120Z,100766.06
2022-11-05T03:41:26.073Z,100768.59
2022-11-05T03:43:59.583Z,100762.38
2022-11-05T03:46:32.871Z,100774.25
2022-11-05T03:49:05.409Z,100782.41
2022-11-05T03:51:39.730Z,100774.28
2022-11-05T03:54:08.137Z,100789.84
2022-11-05T03:56:40.484Z,100798.03
2022-11-05T03:59:11.121Z,100775.22
2022-11-05T04:01:39.551Z,100797.91
2022-11-05T04:04:09.675Z,100798.97
2022-11-05T04:06:54.745Z,100791.41
2022-11-05T04:09:40.091Z,100794.66
2022-11-05T04:12:30.766Z,100808.31
2022-11-05T04:14:58.639Z,100780.31
2022-11-05T04:17:25.588Z,100807.38
2022-11-05T04:20:11.965Z,100810.25
2022-11-05T04:22:57.289Z,100813.00
2022-11-05T04:25:24.995Z,100810.50
2022-11-05T04:27:53.663Z,100821.53
2022-11-05T04:30:21.439Z,100815.66
2022-11-05T04:33:04.516Z,100822.72
2022-11-05T04:35:35.801Z,100816.97
2022-11-05T04:38:04.723Z,100825.38
2022-11-05T04:40:32.743Z,100833.28
2022-11-05T04:43:00.568Z,100826.06
2022-11-05T04:45:30.396Z,100827.50
2022-11-05T04:47:58.137Z,100827.84
2022-11-05T04:50:25.942Z,100827.50
2022-11-05T04:52:55.111Z,100823.31
2022-11-05T04:55:23.226Z,100823.91
2022-11-05T04:57:52.887Z,100820.78
2022-11-05T05:00:22.187Z,100822.47
2022-11-05T05:02:50.392Z,100825.84
2022-11-05T05:05:18.609Z,100820.78
2022-11-05T05:07:46.576Z,100820.78
2022-11-05T05:10:15.657Z,100825.22
2022-11-05T05:12:43.430Z,100821.28
2022-11-05T05:15:11.250Z,100826.56
2022-11-05T05:17:57.971Z,100578.00
2022-11-05T05:20:43.385Z,100824.16
2022-11-05T05:23:11.777Z,100830.16
2022-11-05T05:25:41.152Z,100836.59
2022-11-05T05:28:08.879Z,100841.03
2022-11-05T05:30:36.771Z,100837.31
2022-11-05T05:33:05.037Z,100836.06
2022-11-05T05:35:32.822Z,100845.53
2022-11-05T05:38:00.598Z,100840.88
2022-11-05T05:40:28.524Z,100841.34
2022-11-05T05:42:57.604Z,100849.97
2022-11-05T05:45:25.342Z,100845.66
2022-11-05T05:47:53.045Z,100850.94
2022-11-05T05:50:20.846Z,100845.19
2022-11-05T05:52:53.010Z,100855.72
2022-11-05T05:55:20.744Z,100856.69
2022-11-05T05:57:48.506Z,100861.44
2022-11-05T06:00:17.946Z,100867.78
2022-11-05T06:02:45.818Z,100871.84
2022-11-05T06:05:13.606Z,100872.19
2022-11-05T06:07:41.401Z,100877.69
2022-11-05T06:10:09.877Z,100876.00
2022-11-05T06:12:37.582Z,100878.75
2022-11-05T06:15:06.134Z,100889.16
2022-11-05T06:17:35.603Z,100889.38
2022-11-05T06:20:04.618Z,100883.91
2022-11-05T06:22:32.339Z,100891.47
2022-11-05T06:25:00.070Z,100887.25
2022-11-05T06:27:27.834Z,100877.16
2022-11-05T06:29:56.139Z,100887.72
2022-11-05T06:32:24.062Z,100892.28
2022-11-05T06:34:53.430Z,100892.50
2022-11-05T06:37:21.228Z,100897.88
2022-11-05T06:39:48.948Z,100895.34
2022-11-05T06:42:18.759Z,100894.50
2022-11-05T06:44:47.208Z,100898.50
2022-11-05T06:47:14.979Z,100900.63
2022-11-05T06:49:43.347Z,100909.88
2022-11-05T06:52:12.636Z,100913.47
2022-11-05T06:54:40.798Z,100916.56
2022-11-05T06:57:09.869Z,100910.63
2022-11-05T06:59:37.915Z,100923.38
2022-11-05T07:02:06.058Z,100925.06
2022-11-05T07:04:34.005Z,100933.81
2022-11-05T07:07:01.730Z,100943.59
2022-11-05T07:09:30.816Z,100936.22
2022-11-05T07:11:58.547Z,100945.91
2022-11-05T07:14:28.156Z,100936.03
2022-11-05T07:16:57.818Z,100947.09
2022-11-05T07:19:25.570Z,100947.19
2022-11-05T07:21:53.289Z,100948.66
2022-11-05T07:24:21.038Z,100956.78
2022-11-05T07:26:50.171Z,100949.72
2022-11-05T07:29:17.940Z,100956.44
2022-11-05T07:31:46.891Z,100953.09
2022-11-05T07:34:20.407Z,100955.94
2022-11-05T07:36:50.541Z,100963.63
2022-11-05T07:39:21.670Z,100960.31
2022-11-05T07:41:52.897Z,100962.09
2022-11-05T07:44:20.606Z,100971.56
2022-11-05T07:46:48.346Z,100970.63
2022-11-05T07:49:16.148Z,100967.56
2022-11-05T07:51:43.926Z,100971.72
2022-11-05T07:54:12.096Z,100977.84
2022-11-05T07:56:39.842Z,100974.25
2022-11-05T07:59:11.403Z,100981.31
2022-11-05T08:01:39.397Z,100979.53
2022-11-05T08:04:07.247Z,100984.47
2022-11-05T08:06:35.051Z,100991.31
2022-11-05T08:09:02.822Z,100986.41
2022-11-05T08:11:30.513Z,100979.88
2022-11-05T08:13:58.202Z,100983.44
2022-11-05T08:16:27.273Z,100990.22
2022-11-05T08:18:55.292Z,100984.84
2022-11-05T08:21:23.037Z,100988.06
2022-11-05T08:23:52.344Z,100986.16
2022-11-05T08:26:20.612Z,100984.25
2022-11-05T08:28:48.309Z,100990.75
2022-11-05T08:31:18.006Z,100994.13
2022-11-05T08:33:47.338Z,100993.28
2022-11-05T08:36:15.544Z,100985.72
2022-11-05T08:38:43.273Z,100994.03
2022-11-05T08:41:11.143Z,100987.06
2022-11-05T08:43:38.946Z,100995.13
2022-11-05T08:46:07.197Z,100997.63
2022-11-05T08:48:34.905Z,100999.94
2022-11-05T08:51:04.006Z,100992.47
2022-11-05T08:53:31.741Z,100995.88
2022-11-05T08:56:00.554Z,101000.91
2022-11-05T08:58:28.886Z,101008.25
2022-11-05T09:01:01.831Z,101008.84
2022-11-05T09:03:32.397Z,101007.66
2022-11-05T09:06:00.108Z,101004.81
2022-11-05T09:08:29.191Z,101001.91
2022-11-05T09:10:57.321Z,100995.81
2022-11-05T09:13:25.964Z,101012.28
2022-11-05T09:15:55.905Z,101021.63
2022-11-05T09:18:23.646Z,101010.09
2022-11-05T09:20:51.339Z,101017.22
2022-11-05T09:23:19.362Z,101017.31
2022-11-05T09:25:48.716Z,101019.13
2022-11-05T09:28:19.033Z,101013.47
2022-11-05T09:30:48.801Z,101013.97
2022-11-05T09:33:17.918Z,101015.25
2022-11-05T09:35:45.874Z,101020.69
2022-11-05T09:38:13.888Z,101020.69
2022-11-05T09:40:46.150Z,101019.81
2022-11-05T09:43:19.857Z,101022.09
2022-11-05T09:45:50.687Z,101020.63
2022-11-05T09:48:23.414Z,101020.63
2022-11-05T09:50:53.192Z,101024.94
2022-11-05T09:53:23.723Z,101017.69
2022-11-05T09:55:54.305Z,101021.19
2022-11-05T09:58:32.696Z,101028.72
2022-11-05T10:01:00.858Z,101031.88
2022-11-05T10:03:31.704Z,101023.81
2022-11-05T10:06:08.740Z,101037.03
2022-11-05T10:08:42.590Z,101039.34
2022-11-05T10:11:16.673Z,101038.00
2022-11-05T10:13:48.859Z,101040.13
2022-11-05T10:16:26.538Z,101034.34
2022-11-05T10:18:59.359Z,101038.16
2022-11-05T10:21:51.478Z,101037.88
2022-11-05T10:24:16.662Z,101039.38
2022-11-05T10:26:47.020Z,101040.28
2022-11-05T10:29:22.313Z,101041.88
2022-11-05T10:31:50.305Z,101045.72
2022-11-05T10:34:18.912Z,101050.81
2022-11-05T10:36:46.622Z,101043.63
2022-11-05T10:39:17.386Z,101048.03
2022-11-05T10:42:00.931Z,101053.97
2022-11-05T10:44:36.773Z,101048.03
2022-11-05T10:47:23.455Z,101051.91
2022-11-05T10:49:58.844Z,101050.22
2022-11-05T10:52:29.926Z,101053.31
2022-11-05T10:55:02.742Z,101059.03
2022-11-05T10:57:36.578Z,101052.72
2022-11-05T11:00:28.291Z,101060.28
2022-11-05T11:02:59.438Z,101056.22
2022-11-05T11:05:32.448Z,101060.38
2022-11-05T11:08:04.785Z,101057.13
2022-11-05T11:10:41.812Z,101055.41
2022-11-05T11:13:22.881Z,101052.31
2022-11-05T11:15:54.350Z,101047.31
2022-11-05T11:18:34.641Z,101045.91
2022-11-05T11:21:13.249Z,101046.53
2022-11-05T11:23:42.680Z,101026.00
2022-11-05T11:26:12.712Z,101032.47
2022-11-05T11:28:47.058Z,101034.19
2022-11-05T11:31:18.809Z,101033.81
2022-11-05T11:33:48.954Z,101029.75
2022-11-05T11:36:19.494Z,101036.47
2022-11-05T11:38:47.429Z,101043.44
2022-11-05T11:41:26.045Z,101046.66
2022-11-05T11:44:00.564Z,101051.97
2022-11-05T11:46:36.205Z,101041.31
2022-11-05T11:49:05.304Z,101041.00
2022-11-05T11:51:36.770Z,101038.72
2022-11-05T11:54:06.168Z,101045.25
2022-11-05T11:56:44.479Z,101039.63
2022-11-05T11:59:35.087Z,101043.16
2022-11-05T12:02:49.110Z,101050.63
2022-11-05T12:05:29.711Z,101041.69
2022-11-05T12:08:02.354Z,101043.38
2022-11-05T12:10:45.505Z,101042.88
2022-11-05T12:13:42.319Z,101040.91
2022-11-05T12:16:23.246Z,101042.88
2022-11-05T12:18:59.528Z,101038.13
2022-11-05T12:21:58.683Z,101030.31
2022-11-05T12:24:56.571Z,101031.97
2022-11-05T12:27:46.391Z,101041.19
2022-11-05T12:30:17.655Z,101030.59
2022-11-05T12:33:20.937Z,101029.44
2022-11-05T12:36:04.054Z,101022.13
2022-11-05T12:38:54.314Z,101026.56
2022-11-05T12:41:26.646Z,101023.41
2022-11-05T12:44:11.289Z,101025.97
2022-11-05T12:46:44.561Z,101029.47
2022-11-05T12:49:30.794Z,101035.03
2022-11-05T12:52:20.886Z,101027.50
2022-11-05T12:55:03.133Z,101025.81
2022-11-05T12:57:33.100Z,101031.94
2022-11-05T13:00:07.514Z,101029.34
2022-11-05T13:02:41.892Z,101000.22
2022-11-05T13:05:16.001Z,101021.59
2022-11-05T13:07:50.456Z,101016.88
2022-11-05T13:10:28.185Z,100981.63
2022-11-05T13:13:03.407Z,100972.81
2022-11-05T13:15:36.915Z,100978.66
2022-11-05T13:18:11.725Z,100992.66
2022-11-05T13:20:43.130Z,100970.44
2022-11-05T13:23:18.560Z,100992.66
2022-11-05T13:25:51.321Z,100987.66
2022-11-05T13:28:29.040Z,100990.47
2022-11-05T13:31:01.792Z,100990.75
2022-11-05T13:33:34.351Z,100989.31
2022-11-05T13:36:26.456Z,101005.94
2022-11-05T13:39:00.569Z,101003.03
2022-11-05T13:41:39.168Z,101004.44
2022-11-05T13:44:36.971Z,100991.19
2022-11-05T13:47:36.895Z,100994.81
2022-11-05T13:50:27.070Z,100987.38
2022-11-05T13:53:14.665Z,100990.34
2022-11-05T13:56:10.565Z,100988.66
2022-11-05T13:58:57.897Z,100982.09
2022-11-05T14:01:40.219Z,100978.59
2022-11-05T14:04:15.614Z,100976.34
2022-11-05T14:06:43.604Z,100974.53
2022-11-05T14:09:26.044Z,100972.47
2022-11-05T14:11:58.393Z,100962.84
2022-11-05T14:14:34.050Z,100959.56
2022-11-05T14:17:16.566Z,100968.94
2022-11-05T14:20:06.637Z,100954.72
2022-11-05T14:22:40.106Z,100965.31
2022-11-05T14:25:43.849Z,100962.53
2022-11-05T14:28:44.942Z,100963.31
2022-11-05T14:31:47.372Z,100963.31
2022-11-05T14:34:41.261Z,100962.75
2022-11-05T14:37:37.541Z,100967.47
2022-11-05T14:40:30.628Z,100955.91
2022-11-05T14:43:01.490Z,100954.34
2022-11-05T14:45:32.285Z,100960.63
2022-11-05T14:48:03.695Z,100945.97
2022-11-05T14:50:36.313Z,100944.53
2022-11-05T14:53:12.357Z,100946.22
2022-11-05T14:55:42.435Z,100925.84
2022-11-05T14:58:29.044Z,100942.59
2022-11-05T15:00:58.491Z,100946.22
2022-11-05T15:04:02.376Z,100938.53
2022-11-05T15:06:33.224Z,100938.09
2022-11-05T15:09:13.678Z,100924.69
2022-11-05T15:11:46.892Z,100952.31
2022-11-05T15:14:22.741Z,100944.75
2022-11-05T15:16:53.218Z,100948.69
2022-11-05T15:19:26.967Z,100955.94
2022-11-05T15:21:57.742Z,100950.63
2022-11-05T15:24:28.119Z,100954.78
2022-11-05T15:27:04.492Z,100957.53
2022-11-05T15:29:34.048Z,100946.91
2022-11-05T15:32:02.154Z,100931.28
2022-11-05T15:34:33.302Z,100961.19
2022-11-05T15:37:03.319Z,100953.63
2022-11-05T15:39:34.595Z,100964.22
2022-11-05T15:42:05.810Z,100948.13
2022-11-05T15:44:35.776Z,100952.66
2022-11-05T15:47:09.288Z,100951.13
2022-11-05T15:49:38.517Z,100933.06
2022-11-05T15:52:09.051Z,100957.63
2022-11-05T15:54:37.133Z,100950.53
2022-11-05T15:57:05.732Z,100947.16
2022-11-05T15:59:35.046Z,100937.38
2022-11-05T16:02:19.555Z,100931.19
2022-11-05T16:04:49.474Z,100953.56
2022-11-05T16:07:18.266Z,100952.22
2022-11-05T16:09:52.931Z,100960.53
2022-11-05T16:12:32.779Z,100962.09
2022-11-05T16:15:03.846Z,100967.38
2022-11-05T16:17:34.335Z,100961.25
2022-11-05T16:20:03.558Z,100969.78
2022-11-05T16:22:45.931Z,100952.75
2022-11-05T16:25:38.995Z,100963.19
2022-11-05T16:28:20.142Z,100959.13
2022-11-05T16:30:56.605Z,100960.22
2022-11-05T16:33:25.829Z,100958.56
2022-11-05T16:35:54.944Z,100966.38
2022-11-05T16:38:23.317Z,100964.31
2022-11-05T16:40:51.285Z,100962.03
2022-11-05T16:43:21.501Z,100960.81
2022-11-05T16:45:49.260Z,100970.56
2022-11-05T16:48:17.516Z,100932.22
2022-11-05T16:50:46.461Z,100962.41
2022-11-05T16:53:15.661Z,100960.22
2022-11-05T16:55:44.837Z,100956.28
2022-11-05T16:58:20.544Z,100957.72
2022-11-05T17:00:49.042Z,100972.28
2022-11-05T17:03:16.974Z,100977.44
2022-11-05T17:05:44.938Z,100980.81
2022-11-05T17:08:12.965Z,100970.09
2022-11-05T17:10:42.305Z,100950.22
2022-11-05T17:13:12.344Z,100976.88
2022-11-05T17:15:40.025Z,100979.97
2022-11-05T17:18:07.725Z,100982.75
2022-11-05T17:20:40.650Z,100978.84
2022-11-05T17:23:09.858Z,100976.88
2022-11-05T17:25:38.101Z,100982.16
2022-11-05T17:28:07.408Z,100983.16
2022-11-05T17:30:35.186Z,100974.03
2022-11-05T17:33:03.054Z,100975.47
2022-11-05T17:35:30.958Z,100981.31
2022-11-05T17:37:59.044Z,100982.16
2022-11-05T17:40:28.349Z,100972.09
2022-11-05T17:42:56.153Z,100980.63
2022-11-05T17:45:25.252Z,100974.63
2022-11-05T17:47:53.099Z,100976.44
2022-11-05T17:50:21.254Z,100957.53
2022-11-05T17:52:49.019Z,100979.00
2022-11-05T17:55:17.513Z,100967.63
2022-11-05T17:57:46.902Z,100948.22
2022-11-05T18:00:16.670Z,100978.81
2022-11-05T18:02:46.153Z,100989.25
2022-11-05T18:05:14.430Z,100989.97
2022-11-05T18:07:42.728Z,100983.44
2022-11-05T18:10:11.835Z,100986.41
2022-11-05T18:12:40.568Z,100984.47
2022-11-05T18:15:09.391Z,100937.94
2022-11-05T18:17:38.153Z,100988.28
2022-11-05T18:20:14.193Z,100996.53
2022-11-05T18:22:45.442Z,100977.97
2022-11-05T18:25:13.983Z,100987.34
2022-11-05T18:27:41.763Z,100985.66
2022-11-05T18:30:11.078Z,100994.31
2022-11-05T18:32:38.875Z,100994.44
2022-11-05T18:35:08.842Z,100996.47
2022-11-05T18:37:38.755Z,100991.66
2022-11-05T18:40:07.843Z,100990.94
2022-11-05T18:42:35.551Z,100991.19
2022-11-05T18:45:03.355Z,100990.09
2022-11-05T18:47:32.491Z,100985.66
2022-11-05T18:50:00.228Z,100977.84
2022-11-05T18:52:31.617Z,100984.56
2022-11-05T18:54:59.573Z,100981.19
2022-11-05T18:57:27.529Z,100986.50
2022-11-05T18:59:55.294Z,100981.44
2022-11-05T19:02:23.171Z,100972.91
2022-11-05T19:05:22.015Z,100967.56
2022-11-05T19:07:40.581Z,100973.88
2022-11-05T19:10:09.452Z,100970.28
2022-11-05T19:12:37.145Z,100973.03
2022-11-05T19:15:05.515Z,100973.88
2022-11-05T19:17:34.756Z,100972.47
2022-11-05T19:20:03.067Z,100968.28
2022-11-05T19:22:30.856Z,100976.34
2022-11-05T19:24:59.966Z,100972.47
2022-11-05T19:27:27.719Z,100983.06
2022-11-05T19:29:55.406Z,100985.00
2022-11-05T19:32:23.963Z,100987.34
2022-11-05T19:34:51.686Z,100986.16
2022-11-05T19:37:19.934Z,100981.38
2022-11-05T19:39:47.772Z,100988.91
2022-11-05T19:42:16.910Z,100972.97
2022-11-05T19:44:44.629Z,100980.59
2022-11-05T19:47:12.397Z,100990.72
2022-11-05T19:49:40.101Z,100994.84
2022-11-05T19:52:07.782Z,100996.78
2022-11-05T19:54:36.082Z,100996.41
2022-11-05T19:57:03.814Z,101003.69
2022-11-05T19:59:33.181Z,100993.66
2022-11-05T20:02:01.021Z,100999.44
2022-11-05T20:04:28.822Z,100984.88
2022-11-05T20:06:56.597Z,100994.38
2022-11-05T20:09:24.675Z,100987.41
2022-11-05T20:11:54.186Z,100987.88
2022-11-05T20:14:22.110Z,100985.25
2022-11-05T20:16:52.097Z,100965.34
2022-11-05T20:19:21.853Z,100984.28
2022-11-05T20:21:49.915Z,100985.00
2022-11-05T20:24:24.172Z,100987.88
2022-11-05T20:26:53.026Z,100993.28
2022-11-05T20:29:20.724Z,100995.81
2022-11-05T20:31:48.848Z,101006.88
2022-11-05T20:34:17.940Z,101002.84
2022-11-05T20:36:45.740Z,100996.56
2022-11-05T20:39:13.500Z,101000.19
2022-11-05T20:41:41.213Z,101000.63
2022-11-05T20:44:09.258Z,100996.31
2022-11-05T20:46:37.015Z,100986.50
2022-11-05T20:49:04.793Z,100982.88
2022-11-05T20:51:34.081Z,100983.13
2022-11-05T20:54:02.629Z,100984.81
2022-11-05T20:56:31.724Z,100983.47
2022-11-05T20:59:00.833Z,100978.75
2022-11-05T21:01:31.306Z,100978.03
2022-11-05T21:03:59.622Z,100983.72
2022-11-05T21:06:27.463Z,100972.34
2022-11-05T21:08:56.588Z,100987.81
2022-11-05T21:11:24.415Z,100985.56
2022-11-05T21:13:52.330Z,100981.63
2022-11-05T21:16:20.931Z,100985.56
2022-11-05T21:18:49.050Z,100974.28
2022-11-05T21:21:19.629Z,100994.19
2022-11-05T21:23:47.984Z,100991.81
2022-11-05T21:26:18.605Z,100997.81
2022-11-05T21:28:46.601Z,100957.34
2022-11-05T21:31:14.338Z,101009.44
2022-11-05T21:33:42.191Z,101005.72
2022-11-05T21:36:13.063Z,101004.03
2022-11-05T21:38:41.926Z,100976.56
2022-11-05T21:41:12.302Z,101000.56
2022-11-05T21:43:42.322Z,101000.56
2022-11-05T21:46:13.046Z,100993.94
2022-11-05T21:48:41.177Z,100985.09
2022-11-05T21:51:28.601Z,100994.78
2022-11-05T21:54:13.956Z,100986.25
2022-11-05T21:56:59.080Z,100977.78
2022-11-05T21:59:45.877Z,100973.56
2022-11-05T22:02:15.534Z,100967.09
2022-11-05T22:04:45.399Z,100955.56
2022-11-05T22:07:15.922Z,100935.41
2022-11-05T22:09:43.990Z,100935.41
2022-11-05T22:12:12.034Z,100945.59
2022-11-05T22:14:41.306Z,100912.16
2022-11-05T22:17:09.726Z,100943.34
2022-11-05T22:19:37.987Z,100942.50
2022-11-05T22:22:07.329Z,100920.06
2022-11-05T22:24:36.669Z,100943.34
2022-11-05T22:27:08.096Z,100941.41
2022-11-05T22:29:36.964Z,100940.34
2022-11-05T22:32:07.165Z,100940.94
2022-11-05T22:34:35.029Z,100927.13
2022-11-05T22:37:03.919Z,100921.97
2022-11-05T22:39:31.775Z,100914.44
2022-11-05T22:42:05.542Z,100911.44
2022-11-05T22:44:36.479Z,100915.16
2022-11-05T22:47:06.433Z,100914.66
2022-11-05T22:49:34.466Z,100906.91
2022-11-05T22:52:02.350Z,100914.06
2022-11-05T22:54:33.823Z,100915.16
2022-11-05T22:57:04.390Z,100909.28
2022-11-05T22:59:32.193Z,100909.03
2022-11-05T23:02:01.873Z,100904.47
2022-11-05T23:04:34.263Z,100901.59
2022-11-05T23:07:23.152Z,100902.56
2022-11-05T23:10:11.406Z,100900.16
2022-11-05T23:12:39.343Z,100905.09
2022-11-05T23:15:08.716Z,100898.47
2022-11-05T23:17:54.088Z,100897.50
2022-11-05T23:23:17.109Z,100894.13
2022-11-05T23:25:45.165Z,100892.34
2022-11-05T23:28:13.827Z,100886.22
2022-11-05T23:30:59.042Z,100889.09
2022-11-05T23:33:26.840Z,100883.59
2022-11-05T23:36:12.351Z,100881.44
2022-11-05T23:38:41.425Z,100893.09
2022-11-05T23:41:25.713Z,100876.88
2022-11-05T23:44:11.184Z,100873.78
2022-11-05T23:46:56.301Z,100867.41
2022-11-05T23:49:24.186Z,100867.06
2022-11-05T23:51:51.926Z,100884.34
2022-11-05T23:54:21.857Z,100848.38
2022-11-05T23:56:49.634Z,100878.47
2022-11-05T23:59:17.376Z,100864.78
